• Join FlightAware (Why Join?)
  • Login
  • US Flag 
12:13AM EST


 

Airport Tracker/Info


-or-


 

Live Flight TrackerFlight Track Log ✈ N830W ✈ 17-May-2013 ✈ 3B0 - KROC

Flight Track Log - Related Links

Times and Time Zones

All times are in EDT time to prevent confusion due to time zone crossing. See the N830W flight status page for this flight to view local times or setup timezone preferences in your user account.

Time Position Orientation Groundspeed Altitude Reporting Facility
EDT Latitude Longitude Course Direction KTS MPH feet Rate Location/Type
04:45PM 42.8325 -75.4922 290° West 106 122 8,900  Level Boston Center
04:47PM 42.8439 -75.5353 290° West 105 121 8,900  Level Boston Center
04:48PM 42.8469 -75.5753 276° West 102 117 8,900  Level Boston Center
04:49PM 42.8522 -75.6150 280° West 104 120 8,900  Level Boston Center
04:50PM 42.8572 -75.6550 280° West 105 121 9,000  Climbing Boston Center
04:51PM 42.8603 -75.6950 276° West 103 119 9,000  Level Boston Center
04:52PM 42.8675 -75.7378 283° West 102 117 9,100  Climbing Boston Center
04:53PM 42.8683 -75.7803 272° West 107 123 9,000 -120 Descending Boston Center
04:54PM 42.8714 -75.8200 276° West 108 124 8,900 -120 Descending Boston Center
04:54PM 42.8725 -75.8458 273° West 106 122 8,900 -120 Level Boston Center
04:55PM 42.8756 -75.8828 276° West 106 122 8,800 -120 Descending Boston Center
04:57PM 42.8803 -75.9311 278° West 106 122 8,700 -60 Descending Boston Center
04:58PM 42.8833 -75.9711 276° West 105 121 8,700 -60 Level Boston Center
04:59PM 42.8886 -76.0053 282° West 105 121 8,600 -180 Descending Boston Center
05:00PM 42.8997 -76.0514 288° West 110 127 8,400 -180 Descending Boston Center
05:01PM 42.9044 -76.0914 279° West 113 130 8,300 -60 Descending Boston Center
05:02PM 42.9117 -76.1286 285° West 112 129 8,300 -60 Level Boston Center
05:03PM 42.9144 -76.1714 275° West 110 127 8,200 -120 Descending Boston Center
05:04PM 42.9256 -76.2175 288° West 110 127 8,100 -60 Descending Boston Center
05:05PM 42.9344 -76.2606 286° West 109 125 8,100  Level Boston Center
05:06PM 42.9414 -76.3006 283° West 110 127 8,100  Level Boston Center
05:07PM 42.9486 -76.3381 285° West 108 124 8,100  Level Boston Center
05:08PM 42.9556 -76.3781 283° West 109 125 8,200  Climbing Boston Center
05:09PM 42.9583 -76.4181 275° West 108 124 8,100 -60 Descending Boston Center
05:10PM 42.9628 -76.4639 278° West 110 127 8,100  Level Boston Center
05:11PM 42.9700 -76.4983 286° West 108 124 8,100 -60 Level Boston Center
05:12PM 42.9744 -76.5469 277° West 109 125 8,000 -60 Descending Boston Center
05:13PM 42.9814 -76.5872 283° West 111 128 8,000  Level Boston Center
05:14PM 42.9903 -76.6303 286° West 109 125 8,000 -60 Level Boston Center
05:15PM 42.9917 -76.6517 275° West 108 124 7,900  Descending Cleveland Center
05:15PM 42.9922 -76.6744 272° West 109 125 8,000 60 Climbing Cleveland Center
05:16PM 42.9958 -76.7167 277° West 109 125 8,000 -60 Level Cleveland Center
05:17PM 42.9992 -76.7561 277° West 111 128 7,900 -300 Descending Cleveland Center
05:18PM 43.0028 -76.8044 276° West 120 138 7,500 -420 Descending Cleveland Center
05:19PM 43.0067 -76.8525 276° West 125 144 7,100 -480 Descending Cleveland Center
05:20PM 43.0164 -76.8972 287° West 127 146 6,600 -540 Descending Cleveland Center
05:21PM 43.0242 -76.9478 282° West 134 154 6,100 -480 Descending Cleveland Center
05:22PM 43.0342 -77.0042 284° West 138 159 5,700 -420 Descending Cleveland Center
05:23PM 43.0417 -77.0436 285° West 137 158 5,400 -360 Descending Cleveland Center
05:24PM 43.0497 -77.1028 281° West 134 154 5,000 -360 Descending Cleveland Center
05:25PM 43.0556 -77.1564 278° West 136 157 4,700 -240 Descending Cleveland Center
05:26PM 43.0550 -77.2106 269° West 135 155 4,500 -300 Descending Cleveland Center
05:27PM 43.0503 -77.2589 262° West 141 162 4,200 -360 Descending Cleveland Center
05:28PM 43.0497 -77.3131 269° West 140 161 3,900 -360 Descending Cleveland Center
05:29PM 43.0492 -77.3728 269° West 143 165 3,500 -420 Descending Cleveland Center
05:30PM 43.0464 -77.4183 265° West 143 165 3,100 -420 Descending Cleveland Center
05:31PM 43.0519 -77.4750 278° West 144 166 2,800 -420 Descending Cleveland Center
05:32PM 43.0578 -77.5314 278° West 139 160 2,300 -420 Descending Cleveland Center
05:33PM 43.0653 -77.5794 282° West 139 160 2,100 -300 Descending Cleveland Center
05:34PM 43.0725 -77.6217 283° West 106 122 1,800 -300 Descending Cleveland Center
05:35PM 43.0858 -77.6522 301° West 84 97 1,500 -420 Descending Cleveland Center
05:36PM 43.0989 -77.6772 306° West 79 91 1,000 -540 Descending Cleveland Center
05:38PM 43.1167 -77.6667 289° West  Level FlightAware Approximate
05:45PM 43.1191 -77.6719 289° West  Level Estimated